Time;durP1;ratioP1;P1;durP2;ratioP2;P2;SDS_P1;SDS_P2;PMS_P1;PMS_P2;Temp;Humidity;BMP_temperature;BMP_pressure;BME280_temperature;BME280_humidity;BME280_pressure;Samples;Min_cycle;Max_cycle;Signal;HPM_P1;HPM_P2
2022/06/14 00:00:55;;;;;;;7.25;2.47;;;12.30;99.90;;;;;;5032900;28;20648;-57
2022/06/14 00:03:24;;;;;;;7.63;2.13;;;12.40;99.90;;;;;;5032844;28;20162;-58
2022/06/14 00:05:50;;;;;;;21.63;3.63;;;12.40;99.90;;;;;;5033037;28;20178;-58
2022/06/14 00:08:17;;;;;;;5.90;2.17;;;12.40;99.90;;;;;;5032724;28;20209;-59
2022/06/14 00:10:43;;;;;;;9.25;2.58;;;12.40;99.90;;;;;;5032721;28;20660;-57
2022/06/14 00:13:10;;;;;;;6.80;2.17;;;12.30;99.90;;;;;;5032678;28;20629;-57
2022/06/14 00:15:37;;;;;;;10.77;2.53;;;12.30;99.90;;;;;;5032729;28;20756;-58
2022/06/14 00:18:03;;;;;;;9.90;2.53;;;12.40;99.90;;;;;;5032611;28;20183;-58
2022/06/14 00:20:28;;;;;;;11.00;2.65;;;12.30;99.90;;;;;;5032535;28;20174;-57
2022/06/14 00:22:54;;;;;;;7.35;2.20;;;12.30;99.90;;;;;;5032435;28;20174;-58
2022/06/14 00:25:23;;;;;;;9.27;2.50;;;12.30;99.90;;;;;;5032570;28;20185;-58
2022/06/14 00:27:50;;;;;;;10.88;2.22;;;12.30;99.90;;;;;;5032347;28;20217;-57
2022/06/14 00:30:16;;;;;;;14.23;2.70;;;12.20;99.90;;;;;;5032421;28;20217;-58
2022/06/14 00:32:41;;;;;;;11.35;2.90;;;12.20;99.90;;;;;;5032456;28;20212;-57
2022/06/14 00:35:07;;;;;;;10.73;2.17;;;12.10;99.90;;;;;;5032494;28;20170;-57
2022/06/14 00:37:33;;;;;;;9.43;2.35;;;12.10;99.90;;;;;;5030954;28;20178;-58
2022/06/14 00:39:59;;;;;;;7.63;2.57;;;12.10;99.90;;;;;;5032125;28;20170;-57
2022/06/14 00:42:24;;;;;;;12.20;3.77;;;12.10;99.90;;;;;;5032141;28;20177;-57
2022/06/14 00:45:08;;;;;;;6.17;2.27;;;12.10;99.90;;;;;;5030991;28;20166;-57
2022/06/14 00:47:50;;;;;;;7.93;2.57;;;12.00;99.90;;;;;;5034583;28;20825;-57
2022/06/14 00:50:24;;;;;;;8.13;2.63;;;12.00;99.90;;;;;;5042555;28;20192;-58
2022/06/14 00:52:53;;;;;;;8.63;2.23;;;12.00;99.90;;;;;;5051944;28;20675;-57
2022/06/14 00:55:33;;;;;;;4.63;2.10;;;11.80;99.90;;;;;;5032958;28;20177;-57
2022/06/14 00:58:10;;;;;;;7.90;2.60;;;11.80;99.90;;;;;;5031998;28;20613;-57
2022/06/14 01:00:54;;;;;;;13.93;2.47;;;11.80;99.90;;;;;;5031889;28;20256;-57
2022/06/14 01:03:25;;;;;;;11.70;2.50;;;11.70;99.90;;;;;;5032137;28;20646;-58
2022/06/14 01:06:10;;;;;;;7.00;2.43;;;11.70;99.90;;;;;;5036843;28;20180;-57
2022/06/14 01:09:22;;;;;;;7.73;2.60;;;11.60;99.90;;;;;;5050098;28;20228;-58
2022/06/14 01:11:53;;;;;;;5.00;2.17;;;11.60;99.90;;;;;;5048994;28;20188;-57
2022/06/14 01:14:24;;;;;;;9.10;2.90;;;11.50;99.90;;;;;;5051414;28;20702;-58
2022/06/14 01:16:51;;;;;;;7.00;3.00;;;11.50;99.90;;;;;;5051307;28;20169;-57
2022/06/14 01:19:24;;;;;;;10.53;2.87;;;11.40;99.90;;;;;;5051300;28;20727;-57
2022/06/14 01:22:01;;;;;;;7.13;2.50;;;11.40;99.90;;;;;;5051207;28;20177;-58
2022/06/14 01:24:28;;;;;;;9.70;2.30;;;11.30;99.90;;;;;;5051548;28;20208;-58
2022/06/14 01:26:54;;;;;;;7.87;2.47;;;11.30;99.90;;;;;;5051229;28;20201;-58
2022/06/14 01:29:21;;;;;;;7.17;2.47;;;11.40;99.90;;;;;;5051234;28;20208;-58
2022/06/14 01:31:51;;;;;;;11.23;2.87;;;11.30;99.90;;;;;;5051304;28;20533;-57
2022/06/14 01:34:18;;;;;;;6.03;2.80;;;12.30;99.90;;;;;;5051213;28;20165;-58
2022/06/14 01:36:44;;;;;;;5.27;2.60;;;11.30;99.90;;;;;;5050877;28;20177;-58
2022/06/14 01:39:14;;;;;;;12.63;2.70;;;11.30;99.90;;;;;;5051121;28;20177;-58
2022/06/14 01:41:40;;;;;;;14.43;3.33;;;11.30;99.90;;;;;;5051153;28;20181;-58
2022/06/14 01:44:34;;;;;;;11.63;3.13;;;11.30;99.90;;;;;;5050988;28;20180;-57
2022/06/14 01:47:10;;;;;;;14.67;2.63;;;11.30;99.90;;;;;;5050726;28;20701;-57
2022/06/14 01:52:43;;;;;;;8.47;2.53;;;11.30;99.90;;;;;;5051138;28;20204;-57
2022/06/14 01:55:25;;;;;;;7.97;2.70;;;11.30;99.90;;;;;;5050822;28;20174;-57
2022/06/14 01:57:56;;;;;;;6.90;2.77;;;11.30;99.90;;;;;;5050764;28;20639;-58
2022/06/14 02:00:37;;;;;;;8.37;2.83;;;11.30;99.90;;;;;;5050706;28;20655;-57
2022/06/14 02:06:43;;;;;;;8.20;3.27;;;11.20;99.90;;;;;;5050762;28;20717;-58
2022/06/14 02:09:29;;;;;;;9.93;2.43;;;11.20;99.90;;;;;;5042510;28;20201;-58
2022/06/14 02:11:58;;;;;;;8.83;2.70;;;11.20;99.90;;;;;;5050580;28;20201;-58
2022/06/14 02:15:06;;;;;;;8.57;3.17;;;11.20;99.90;;;;;;5050493;28;20188;-57
2022/06/14 02:17:42;;;;;;;7.47;2.20;;;11.20;99.90;;;;;;4988970;28;20183;-58
2022/06/14 02:20:15;;;;;;;5.70;2.67;;;11.10;99.90;;;;;;5048229;28;20196;-57
2022/06/14 02:22:46;;;;;;;8.77;2.67;;;11.10;99.90;;;;;;5054611;28;20192;-57
2022/06/14 02:25:16;;;;;;;10.27;3.00;;;11.10;99.90;;;;;;5054719;28;20267;-57
2022/06/14 02:27:53;;;;;;;4.97;2.50;;;11.10;99.90;;;;;;5054549;28;21086;-57
2022/06/14 02:30:24;;;;;;;9.10;3.03;;;11.00;99.90;;;;;;5054557;28;20263;-58
2022/06/14 02:32:56;;;;;;;7.33;3.10;;;11.00;99.90;;;;;;5054386;28;20260;-57
2022/06/14 02:35:27;;;;;;;7.97;2.70;;;11.00;99.90;;;;;;5054440;28;20261;-57
2022/06/14 02:37:55;;;;;;;7.80;2.60;;;11.00;99.90;;;;;;5054314;28;20628;-57
2022/06/14 02:40:28;;;;;;;6.70;2.67;;;11.00;99.90;;;;;;5054326;28;20177;-57
2022/06/14 02:43:00;;;;;;;7.07;2.70;;;11.00;99.90;;;;;;5054304;28;20173;-58
2022/06/14 02:45:38;;;;;;;9.50;2.70;;;11.10;99.90;;;;;;5054189;28;20179;-57
2022/06/14 02:48:16;;;;;;;9.10;2.60;;;11.20;99.90;;;;;;5053890;28;20227;-57
2022/06/14 02:50:52;;;;;;;12.30;2.67;;;11.20;99.90;;;;;;5054150;28;20532;-57
2022/06/14 02:53:26;;;;;;;7.53;2.47;;;11.10;99.90;;;;;;5054069;28;20179;-57
2022/06/14 02:55:58;;;;;;;7.63;2.80;;;11.10;99.90;;;;;;5054032;28;20170;-58
2022/06/14 02:58:25;;;;;;;4.63;2.50;;;11.10;99.90;;;;;;5053983;28;20184;-58
2022/06/14 03:01:01;;;;;;;6.50;2.30;;;11.10;99.90;;;;;;5053956;28;20256;-58
2022/06/14 03:03:44;;;;;;;11.27;2.83;;;11.00;99.90;;;;;;5053995;28;20635;-57
2022/06/14 03:06:20;;;;;;;7.83;2.40;;;10.90;99.90;;;;;;5053749;28;20178;-57
2022/06/14 03:09:02;;;;;;;6.77;2.53;;;10.90;99.90;;;;;;5053780;28;20200;-58
2022/06/14 03:11:52;;;;;;;12.43;2.73;;;10.80;99.90;;;;;;5053693;28;20172;-57
2022/06/14 03:14:25;;;;;;;8.33;2.63;;;10.80;99.90;;;;;;5052391;28;20216;-57
2022/06/14 03:17:09;;;;;;;7.90;2.50;;;10.70;99.90;;;;;;5049534;28;20702;-57
2022/06/14 03:19:53;;;;;;;6.27;2.47;;;10.70;99.90;;;;;;5053465;28;20507;-57
2022/06/14 03:22:45;;;;;;;8.03;2.20;;;10.60;99.90;;;;;;5053624;28;20204;-57
2022/06/14 03:25:13;;;;;;;6.33;2.20;;;10.70;99.90;;;;;;5053530;28;20173;-57
2022/06/14 03:27:51;;;;;;;7.10;2.57;;;10.60;99.90;;;;;;5053438;28;20228;-57
2022/06/14 03:30:28;;;;;;;9.37;2.20;;;10.60;99.90;;;;;;5053202;28;20172;-58
2022/06/14 03:33:06;;;;;;;9.47;2.53;;;10.60;99.90;;;;;;5053320;28;20701;-57
2022/06/14 03:35:42;;;;;;;9.07;2.20;;;10.60;99.90;;;;;;5053403;28;20161;-57
2022/06/14 03:38:19;;;;;;;7.60;2.13;;;10.40;99.90;;;;;;5053325;28;20196;-57
2022/06/14 03:40:46;;;;;;;5.83;2.50;;;10.50;99.90;;;;;;5053224;28;20656;-57
2022/06/14 03:43:13;;;;;;;6.77;2.30;;;10.50;99.90;;;;;;5053024;28;20269;-58
2022/06/14 03:45:57;;;;;;;5.67;2.57;;;10.50;99.90;;;;;;5053132;28;20268;-57
2022/06/14 03:48:23;;;;;;;10.13;2.23;;;10.40;99.90;;;;;;5052878;28;20270;-57
2022/06/14 03:51:09;;;;;;;3.73;1.87;;;10.40;99.90;;;;;;5053090;28;20694;-56
2022/06/14 03:53:56;;;;;;;6.37;2.50;;;10.40;99.90;;;;;;5046753;28;20182;-57
2022/06/14 03:56:25;;;;;;;6.43;2.40;;;10.50;99.90;;;;;;5048340;28;20200;-56
2022/06/14 03:59:11;;;;;;;9.63;3.00;;;10.50;99.90;;;;;;5050388;28;20165;-56
2022/06/14 04:01:48;;;;;;;8.30;2.67;;;10.50;99.90;;;;;;5033111;28;20185;-58
2022/06/14 04:04:46;;;;;;;7.97;2.70;;;10.40;99.90;;;;;;5032871;28;20176;-57
2022/06/14 04:07:45;;;;;;;8.37;2.50;;;10.30;99.90;;;;;;5009801;28;20267;-58
2022/06/14 04:10:28;;;;;;;7.67;3.03;;;10.40;99.90;;;;;;5032793;28;20182;-57
2022/06/14 04:13:14;;;;;;;5.77;2.10;;;10.40;99.90;;;;;;5050417;28;20201;-57
2022/06/14 04:15:50;;;;;;;7.00;2.60;;;10.40;99.90;;;;;;5052690;28;20181;-57
2022/06/14 04:18:45;;;;;;;7.57;2.30;;;10.40;99.90;;;;;;5052649;28;20173;-57
2022/06/14 04:21:36;;;;;;;7.30;2.37;;;10.40;99.90;;;;;;5052453;28;20255;-57
2022/06/14 04:24:26;;;;;;;6.33;2.20;;;10.50;99.90;;;;;;5052519;28;20170;-57
2022/06/14 04:27:19;;;;;;;4.87;2.10;;;10.40;99.90;;;;;;5052254;28;20676;-57
2022/06/14 04:30:03;;;;;;;5.80;2.10;;;10.40;99.90;;;;;;5052749;28;20170;-57
2022/06/14 04:32:36;;;;;;;6.77;2.37;;;10.30;99.90;;;;;;5052313;28;20176;-57
2022/06/14 04:35:16;;;;;;;6.20;2.23;;;10.30;99.90;;;;;;5052334;28;20173;-56
2022/06/14 04:37:51;;;;;;;5.73;2.17;;;10.30;99.90;;;;;;5052305;28;20219;-57
2022/06/14 04:40:25;;;;;;;7.10;2.30;;;10.20;99.90;;;;;;5052261;28;20433;-57
2022/06/14 04:43:01;;;;;;;10.50;2.37;;;10.20;99.90;;;;;;5051461;28;20165;-57
2022/06/14 04:45:56;;;;;;;8.80;2.40;;;10.20;99.90;;;;;;5052070;28;20223;-57
2022/06/14 04:48:26;;;;;;;10.40;2.60;;;10.10;99.90;;;;;;5051823;28;20224;-57
2022/06/14 04:50:56;;;;;;;3.80;2.03;;;10.20;99.90;;;;;;5050676;28;20180;-57
2022/06/14 04:53:29;;;;;;;7.00;2.40;;;10.40;99.90;;;;;;5051865;28;20505;-57
2022/06/14 04:56:10;;;;;;;6.10;2.20;;;10.20;99.90;;;;;;5051794;28;20651;-57
2022/06/14 04:58:52;;;;;;;10.07;2.77;;;10.10;99.90;;;;;;5051754;28;20644;-57
2022/06/14 05:01:32;;;;;;;6.10;2.17;;;10.20;99.90;;;;;;5051732;28;20218;-57
2022/06/14 05:04:04;;;;;;;10.07;2.50;;;11.50;99.90;;;;;;5051674;28;20196;-57
2022/06/14 05:06:41;;;;;;;6.33;2.37;;;10.30;99.90;;;;;;5051576;28;20719;-57
2022/06/14 05:09:16;;;;;;;7.00;2.17;;;10.30;99.90;;;;;;5051519;28;20192;-57
2022/06/14 05:11:57;;;;;;;7.63;2.33;;;10.40;99.90;;;;;;5051670;28;20230;-57
2022/06/14 05:14:25;;;;;;;7.80;2.20;;;10.50;99.90;;;;;;5051448;28;20176;-57
2022/06/14 05:17:17;;;;;;;8.13;2.27;;;10.60;99.90;;;;;;5051313;28;20177;-57
2022/06/14 05:20:00;;;;;;;5.33;2.47;;;10.60;99.90;;;;;;5051278;28;20176;-57
2022/06/14 05:22:44;;;;;;;6.70;2.70;;;10.60;99.90;;;;;;5051479;28;20344;-57
2022/06/14 05:25:12;;;;;;;5.80;2.37;;;10.60;99.90;;;;;;5051269;28;20180;-57
2022/06/14 05:27:52;;;;;;;5.13;2.23;;;10.70;99.90;;;;;;5051212;28;20232;-58
2022/06/14 05:30:59;;;;;;;6.13;2.30;;;10.70;99.90;;;;;;5051191;28;20161;-57
2022/06/14 05:33:32;;;;;;;8.17;2.63;;;10.80;99.90;;;;;;5024478;28;20188;-57
2022/06/14 05:36:09;;;;;;;11.20;2.60;;;10.90;99.90;;;;;;5051056;28;20173;-57
2022/06/14 05:38:45;;;;;;;10.57;2.50;;;10.90;99.90;;;;;;5051072;28;20624;-57
2022/06/14 05:41:18;;;;;;;8.77;2.67;;;11.00;99.90;;;;;;5051217;28;20176;-59
2022/06/14 05:44:04;;;;;;;8.47;2.40;;;11.10;99.90;;;;;;5051074;28;20172;-58
2022/06/14 05:46:50;;;;;;;8.77;2.63;;;11.10;99.90;;;;;;5050959;28;20169;-58
2022/06/14 05:49:24;;;;;;;9.27;3.00;;;11.30;99.90;;;;;;5050815;28;20303;-58
2022/06/14 05:51:50;;;;;;;8.07;2.70;;;11.30;99.90;;;;;;5050940;28;20180;-58
2022/06/14 05:54:21;;;;;;;6.63;2.60;;;11.40;99.90;;;;;;5050580;28;20181;-58
2022/06/14 05:57:05;;;;;;;6.37;2.97;;;11.60;99.90;;;;;;5049471;28;20169;-58
2022/06/14 05:59:44;;;;;;;5.13;2.50;;;11.70;99.90;;;;;;5050677;28;20283;-58
2022/06/14 06:02:44;;;;;;;11.87;3.20;;;11.70;99.90;;;;;;5050658;28;20195;-58
2022/06/14 06:05:33;;;;;;;6.90;2.90;;;11.80;99.90;;;;;;5037705;28;20226;-57
2022/06/14 06:08:07;;;;;;;12.57;2.77;;;12.00;99.90;;;;;;5050674;28;20212;-58
2022/06/14 06:10:37;;;;;;;10.13;2.40;;;12.10;99.90;;;;;;5050558;28;20206;-58
2022/06/14 06:13:09;;;;;;;7.60;2.13;;;12.40;99.90;;;;;;5050589;28;20516;-58
2022/06/14 06:15:42;;;;;;;6.87;2.50;;;12.30;99.90;;;;;;5041221;28;20639;-57
2022/06/14 06:18:24;;;;;;;5.47;2.17;;;12.20;99.90;;;;;;5047837;28;20169;-58
2022/06/14 06:21:18;;;;;;;9.90;2.00;;;12.30;99.90;;;;;;5044137;28;20185;-58
2022/06/14 06:23:51;;;;;;;7.53;2.23;;;12.40;99.90;;;;;;5030600;28;20166;-58
2022/06/14 06:26:21;;;;;;;7.33;1.70;;;12.50;99.90;;;;;;5030487;28;20166;-58
2022/06/14 06:28:54;;;;;;;5.43;2.10;;;12.60;99.90;;;;;;5030518;28;20576;-57
2022/06/14 06:31:23;;;;;;;5.90;1.80;;;12.70;99.90;;;;;;5030484;28;20219;-58
2022/06/14 06:33:52;;;;;;;6.88;1.88;;;12.70;99.90;;;;;;5030497;28;20176;-58
2022/06/14 06:36:36;;;;;;;5.47;1.90;;;12.80;99.90;;;;;;5029258;28;20261;-58
2022/06/14 06:39:31;;;;;;;9.67;2.07;;;12.80;99.90;;;;;;5030670;28;20176;-58
2022/06/14 06:42:04;;;;;;;3.77;1.53;;;12.90;99.90;;;;;;5030596;28;20174;-58
2022/06/14 06:44:36;;;;;;;5.13;1.93;;;13.00;99.90;;;;;;5030375;28;20261;-58
2022/06/14 06:47:05;;;;;;;5.90;2.20;;;13.00;99.90;;;;;;5030203;28;20435;-58
2022/06/14 06:49:45;;;;;;;8.63;2.67;;;13.10;99.90;;;;;;5030322;28;20300;-58
2022/06/14 06:52:12;;;;;;;4.80;1.83;;;13.20;99.90;;;;;;5030308;28;20181;-58
2022/06/14 06:55:01;;;;;;;8.27;2.00;;;13.30;99.90;;;;;;5030417;28;20177;-59
2022/06/14 06:57:29;;;;;;;4.82;1.60;;;13.30;99.90;;;;;;5030134;28;20185;-58
2022/06/14 06:59:58;;;;;;;5.95;1.52;;;13.70;99.90;;;;;;5030316;28;20249;-57
2022/06/14 07:02:29;;;;;;;5.50;1.35;;;13.50;99.90;;;;;;5028918;28;20308;-57
2022/06/14 07:05:03;;;;;;;8.65;1.90;;;13.60;99.90;;;;;;5031353;28;20225;-58
2022/06/14 07:07:43;;;;;;;10.07;1.30;;;13.70;99.90;;;;;;5033784;28;20212;-57
2022/06/14 07:10:27;;;;;;;4.33;1.60;;;13.60;99.90;;;;;;5033838;28;20166;-57
2022/06/14 07:12:55;;;;;;;11.65;1.75;;;13.80;99.90;;;;;;5033907;28;20226;-57
2022/06/14 07:15:35;;;;;;;8.13;2.05;;;13.90;99.90;;;;;;5033632;28;20201;-56
2022/06/14 07:18:14;;;;;;;8.82;1.73;;;13.90;99.90;;;;;;5033659;28;20170;-56
2022/06/14 07:20:57;;;;;;;8.52;1.88;;;14.00;99.90;;;;;;5033597;28;20185;-57
2022/06/14 07:23:35;;;;;;;4.20;1.60;;;14.00;99.90;;;;;;5033818;28;20205;-56
2022/06/14 07:26:22;;;;;;;9.23;2.17;;;14.20;99.90;;;;;;5033461;28;20716;-56
2022/06/14 07:28:58;;;;;;;7.10;1.80;;;14.30;99.90;;;;;;5033314;28;20225;-56
2022/06/14 07:31:36;;;;;;;10.05;2.53;;;14.40;99.90;;;;;;5033534;28;20169;-57
2022/06/14 07:34:02;;;;;;;12.30;3.08;;;14.50;99.90;;;;;;5033354;28;20288;-56
2022/06/14 07:36:45;;;;;;;6.25;2.25;;;14.60;99.90;;;;;;5033413;28;20555;-56
2022/06/14 07:39:20;;;;;;;8.35;2.55;;;14.70;99.90;;;;;;5033309;28;20209;-58
2022/06/14 07:42:04;;;;;;;9.05;2.10;;;14.70;99.90;;;;;;5033503;28;20636;-57
2022/06/14 07:44:39;;;;;;;8.98;1.80;;;14.80;99.90;;;;;;5033159;28;20667;-57
2022/06/14 07:47:18;;;;;;;14.23;2.88;;;15.10;99.90;;;;;;5032919;28;20201;-57
2022/06/14 07:50:09;;;;;;;12.68;2.40;;;15.50;99.90;;;;;;5032809;28;20188;-57
2022/06/14 07:52:50;;;;;;;13.77;2.28;;;15.60;99.90;;;;;;5033205;28;20699;-57
2022/06/14 07:55:32;;;;;;;6.80;1.92;;;16.00;99.90;;;;;;5032954;28;20198;-56
2022/06/14 07:58:05;;;;;;;6.95;2.08;;;15.90;99.90;;;;;;5032949;28;20174;-57
2022/06/14 08:03:37;;;;;;;4.55;2.08;;;16.20;99.90;;;;;;5033244;28;20181;-58
2022/06/14 08:06:07;;;;;;;10.40;1.40;;;16.30;99.90;;;;;;5032672;28;20174;-57
2022/06/14 08:08:37;;;;;;;4.88;1.42;;;16.40;99.90;;;;;;5032318;28;20704;-56
2022/06/14 08:11:26;;;;;;;9.77;2.08;;;16.60;99.90;;;;;;5031487;28;20517;-57
2022/06/14 08:14:03;;;;;;;10.68;2.13;;;16.60;99.90;;;;;;5032652;28;20180;-57
2022/06/14 08:16:29;;;;;;;11.70;1.65;;;16.70;99.90;;;;;;5031489;28;20178;-56
2022/06/14 08:19:00;;;;;;;5.80;1.83;;;16.60;99.90;;;;;;5032620;28;20163;-57
2022/06/14 08:21:37;;;;;;;5.63;1.52;;;16.90;99.90;;;;;;5032752;28;20178;-57
2022/06/14 08:24:32;;;;;;;7.82;2.00;;;16.90;99.90;;;;;;5035535;28;20177;-57
2022/06/14 08:27:04;;;;;;;4.03;1.20;;;17.10;99.90;;;;;;5031621;28;20178;-57
2022/06/14 08:29:39;;;;;;;13.38;1.77;;;17.10;99.90;;;;;;5042835;28;20185;-58
2022/06/14 08:32:22;;;;;;;6.50;1.90;;;16.90;99.90;;;;;;5052427;28;20542;-58
2022/06/14 08:35:12;;;;;;;4.35;1.48;;;17.20;99.90;;;;;;5052299;28;20165;-57
2022/06/14 08:37:46;;;;;;;4.95;1.77;;;17.30;99.90;;;;;;5052197;28;20189;-58
2022/06/14 08:40:37;;;;;;;7.75;1.45;;;17.20;99.90;;;;;;5052229;28;20534;-57
2022/06/14 08:43:12;;;;;;;8.88;2.15;;;17.80;99.90;;;;;;5032272;28;20201;-57
2022/06/14 08:45:56;;;;;;;8.70;1.45;;;18.00;99.90;;;;;;5032196;28;20161;-56
2022/06/14 08:48:21;;;;;;;11.15;1.83;;;18.00;99.90;;;;;;5031948;28;20218;-57
2022/06/14 08:51:09;;;;;;;10.57;1.80;;;18.20;99.90;;;;;;5032176;28;20178;-56
2022/06/14 08:53:59;;;;;;;9.25;1.80;;;18.20;99.90;;;;;;5032021;28;20660;-57
2022/06/14 08:56:50;;;;;;;7.05;1.70;;;18.70;99.90;;;;;;5032030;28;20170;-56
2022/06/14 08:59:43;;;;;;;8.27;1.75;;;19.30;99.90;;;;;;5031907;28;20289;-57
2022/06/14 09:02:25;;;;;;;6.40;1.80;;;19.60;99.90;;;;;;5031743;28;20177;-57
2022/06/14 09:05:29;;;;;;;8.82;1.75;;;19.80;99.90;;;;;;5031849;28;20166;-58
2022/06/14 09:08:23;;;;;;;7.82;1.90;;;19.80;99.90;;;;;;5031723;28;20258;-57
2022/06/14 09:10:54;;;;;;;5.88;1.35;;;20.30;99.90;;;;;;5031582;28;20256;-57
2022/06/14 09:13:29;;;;;;;9.02;1.80;;;21.00;99.90;;;;;;5031399;28;20177;-58
2022/06/14 09:16:37;;;;;;;7.63;1.80;;;21.50;99.90;;;;;;5031469;28;20177;-58
2022/06/14 09:19:21;;;;;;;4.57;1.80;;;22.20;99.90;;;;;;5031495;28;20728;-57
2022/06/14 09:21:47;;;;;;;10.55;2.40;;;22.70;99.90;;;;;;5031629;28;20189;-58
2022/06/14 09:24:43;;;;;;;6.68;2.10;;;22.40;99.90;;;;;;5031524;28;20661;-57
2022/06/14 09:27:33;;;;;;;8.45;1.92;;;21.70;99.90;;;;;;5031177;28;20293;-57
2022/06/14 09:30:23;;;;;;;6.85;2.25;;;20.80;99.90;;;;;;5031362;28;20174;-57
2022/06/14 09:33:20;;;;;;;7.28;2.00;;;20.60;99.90;;;;;;5031250;28;20268;-57
2022/06/14 09:36:02;;;;;;;5.07;1.85;;;20.90;99.90;;;;;;5031149;28;20177;-57
2022/06/14 09:38:47;;;;;;;10.18;2.20;;;21.00;99.90;;;;;;5031101;28;20162;-57
2022/06/14 09:41:34;;;;;;;8.80;2.42;;;20.50;99.90;;;;;;5031087;28;20265;-57
2022/06/14 09:44:02;;;;;;;8.10;2.30;;;20.40;99.90;;;;;;5031003;28;20190;-56
2022/06/14 09:47:06;;;;;;;7.43;2.00;;;20.20;99.90;;;;;;5030974;28;20165;-56
2022/06/14 09:49:43;;;;;;;7.20;2.20;;;20.70;99.90;;;;;;5031141;28;20225;-57
2022/06/14 09:52:10;;;;;;;9.25;2.45;;;21.60;99.90;;;;;;5030775;28;20165;-56
2022/06/14 09:54:36;;;;;;;9.00;2.40;;;21.20;99.90;;;;;;5030855;28;20833;-57
2022/06/14 09:57:19;;;;;;;6.45;1.83;;;21.70;99.90;;;;;;5030860;28;20170;-57
2022/06/14 10:00:09;;;;;;;7.45;2.00;;;21.30;99.90;;;;;;5030815;28;20170;-56
2022/06/14 10:03:17;;;;;;;7.70;2.00;;;21.30;99.90;;;;;;5030848;28;20174;-57
2022/06/14 10:05:55;;;;;;;5.63;1.98;;;21.20;99.90;;;;;;5016759;28;20178;-57
2022/06/14 10:08:37;;;;;;;7.00;1.73;;;21.00;99.90;;;;;;5030846;28;20241;-57
2022/06/14 10:11:24;;;;;;;6.25;2.42;;;21.20;99.90;;;;;;5030494;28;20261;-56
2022/06/14 10:14:11;;;;;;;6.55;1.92;;;21.80;99.90;;;;;;5030916;28;20178;-57
2022/06/14 10:16:49;;;;;;;8.13;2.13;;;20.90;99.90;;;;;;5030872;28;20177;-57
2022/06/14 10:19:30;;;;;;;4.93;1.95;;;20.80;99.90;;;;;;5030661;28;20173;-57
2022/06/14 10:22:27;;;;;;;7.75;2.00;;;21.40;99.90;;;;;;5030836;28;20181;-55
2022/06/14 10:24:57;;;;;;;6.35;2.30;;;21.50;99.90;;;;;;5030580;28;20669;-56
2022/06/14 10:31:07;;;;;;;5.80;2.15;;;22.20;99.90;;;;;;5019854;28;20220;-57
2022/06/14 10:33:58;;;;;;;6.38;2.20;;;23.00;99.90;;;;;;5029126;28;20182;-58
2022/06/14 10:36:47;;;;;;;5.95;2.10;;;23.00;99.90;;;;;;5030498;28;20636;-57
2022/06/14 10:39:28;;;;;;;11.98;2.25;;;22.10;99.90;;;;;;5030468;28;20170;-57
2022/06/14 10:42:27;;;;;;;7.53;1.95;;;22.50;99.90;;;;;;5034452;28;20198;-57
2022/06/14 10:45:23;;;;;;;5.72;1.98;;;22.50;99.90;;;;;;5034525;28;20248;-57
2022/06/14 10:48:09;;;;;;;2.83;1.67;;;23.10;99.90;;;;;;5034090;28;20210;-57
2022/06/14 10:50:58;;;;;;;7.65;2.25;;;23.20;99.90;;;;;;5034283;28;20169;-56
2022/06/14 10:53:43;;;;;;;5.50;1.90;;;22.60;99.90;;;;;;5034288;28;20643;-57
2022/06/14 10:56:27;;;;;;;5.68;2.15;;;22.60;99.90;;;;;;5042808;28;20219;-57
2022/06/14 10:59:23;;;;;;;5.35;2.10;;;23.10;99.90;;;;;;5054136;28;20169;-57
2022/06/14 11:02:13;;;;;;;4.13;1.85;;;23.50;99.90;;;;;;5019426;28;20186;-57
2022/06/14 11:05:01;;;;;;;5.70;2.00;;;23.90;99.90;;;;;;5034105;28;20205;-58
2022/06/14 11:07:45;;;;;;;6.80;1.85;;;24.30;99.90;;;;;;5016219;28;20650;-58
2022/06/14 11:10:48;;;;;;;8.30;2.30;;;24.40;99.90;;;;;;5034046;28;20170;-58
2022/06/14 11:13:24;;;;;;;6.53;2.20;;;23.50;99.90;;;;;;5033873;28;20221;-58
2022/06/14 11:16:01;;;;;;;5.80;1.80;;;23.60;99.90;;;;;;5033888;28;20169;-56
2022/06/14 11:18:58;;;;;;;6.57;2.20;;;24.10;99.90;;;;;;5033999;28;20180;-56
2022/06/14 11:21:58;;;;;;;5.60;2.10;;;24.20;99.90;;;;;;5033649;28;20227;-58
2022/06/14 11:24:47;;;;;;;4.82;1.90;;;24.40;99.90;;;;;;5033660;28;20177;-56
2022/06/14 11:27:25;;;;;;;5.20;1.88;;;25.00;99.90;;;;;;5033241;28;20189;-57
2022/06/14 11:30:10;;;;;;;7.78;1.85;;;25.20;99.90;;;;;;5033581;28;20687;-57
2022/06/14 11:33:10;;;;;;;3.50;1.50;;;25.60;99.90;;;;;;5033520;28;20173;-57
2022/06/14 11:36:06;;;;;;;6.85;1.90;;;26.10;99.90;;;;;;5013894;28;20653;-57
2022/06/14 11:38:41;;;;;;;7.30;2.00;;;26.00;99.90;;;;;;5033344;28;20181;-57
2022/06/14 11:41:09;;;;;;;5.13;1.77;;;26.40;99.90;;;;;;5033678;28;20173;-58
2022/06/14 11:43:53;;;;;;;5.75;1.83;;;26.60;99.90;;;;;;5015687;28;20261;-57
2022/06/14 11:46:44;;;;;;;6.32;2.03;;;26.80;99.90;;;;;;5033420;28;20680;-57
2022/06/14 11:49:17;;;;;;;8.10;1.98;;;26.10;99.90;;;;;;5033080;28;20221;-57
2022/06/14 11:52:12;;;;;;;9.02;2.10;;;25.20;99.90;;;;;;5033110;28;20228;-58
2022/06/14 11:54:59;;;;;;;5.30;1.80;;;25.90;99.90;;;;;;5033178;28;20189;-58
2022/06/14 11:57:52;;;;;;;4.20;1.88;;;26.40;99.90;;;;;;5033099;28;20162;-57
2022/06/14 12:00:23;;;;;;;5.50;1.90;;;26.30;99.90;;;;;;5033161;28;20169;-58
2022/06/14 12:02:57;;;;;;;5.72;1.67;;;26.90;99.90;;;;;;5033093;28;20192;-58
2022/06/14 12:05:34;;;;;;;6.93;2.05;;;27.30;99.90;;;;;;5032965;28;20511;-58
2022/06/14 12:08:32;;;;;;;5.10;1.83;;;27.60;99.90;;;;;;5032723;28;20240;-58
2022/06/14 12:11:30;;;;;;;7.10;1.95;;;27.80;99.90;;;;;;5033073;28;20178;-58
2022/06/14 12:14:13;;;;;;;4.07;1.90;;;27.70;99.90;;;;;;5032943;28;20181;-58
2022/06/14 12:16:42;;;;;;;6.18;2.05;;;28.10;99.90;;;;;;5032989;28;20178;-58
2022/06/14 12:19:20;;;;;;;4.47;1.80;;;27.90;99.90;;;;;;5032832;28;20710;-58
2022/06/14 12:22:26;;;;;;;5.35;2.00;;;28.40;99.90;;;;;;5032772;28;20177;-58
2022/06/14 12:27:43;;;;;;;5.32;1.88;;;28.40;99.90;;;;;;5032666;28;20223;-58
2022/06/14 12:30:11;;;;;;;5.45;1.90;;;28.60;99.90;;;;;;5032439;28;20219;-58
2022/06/14 12:33:10;;;;;;;5.38;1.77;;;28.80;99.90;;;;;;5032439;28;20170;-60
2022/06/14 12:35:43;;;;;;;6.75;2.10;;;29.10;99.90;;;;;;5032302;28;20166;-56
2022/06/14 12:38:20;;;;;;;6.45;1.65;;;29.00;99.90;;;;;;5032409;28;20173;-57
2022/06/14 12:40:53;;;;;;;13.10;2.05;;;29.20;99.90;;;;;;5032256;28;20256;-58
2022/06/14 12:43:19;;;;;;;6.38;2.00;;;28.40;99.90;;;;;;5032261;28;20648;-60
2022/06/14 12:45:53;;;;;;;4.13;1.95;;;28.90;99.90;;;;;;5032243;28;20201;-58
2022/06/14 12:48:44;;;;;;;6.80;2.17;;;29.00;99.90;;;;;;5031818;28;20274;-57
2022/06/14 12:51:47;;;;;;;11.57;2.38;;;29.50;99.90;;;;;;5020620;28;20216;-58
2022/06/14 12:54:25;;;;;;;6.82;2.05;;;30.10;99.90;;;;;;5032008;28;20197;-58
2022/06/14 12:57:03;;;;;;;8.15;1.80;;;28.90;99.90;;;;;;5032119;28;20235;-58
2022/06/14 12:59:43;;;;;;;6.25;1.85;;;28.20;99.90;;;;;;5032305;28;20219;-59
2022/06/14 13:02:40;;;;;;;6.78;2.10;;;28.20;99.90;;;;;;5031407;28;20202;-59
2022/06/14 13:05:17;;;;;;;3.78;1.60;;;28.60;99.90;;;;;;5034796;28;20186;-59
2022/06/14 13:07:50;;;;;;;3.85;1.40;;;28.90;99.90;;;;;;5049819;28;20204;-59
2022/06/14 13:10:29;;;;;;;6.35;1.95;;;28.80;99.90;;;;;;5045949;28;20268;-61
2022/06/14 13:13:24;;;;;;;4.00;1.88;;;27.90;99.90;;;;;;5031666;28;20174;-59
2022/06/14 13:16:05;;;;;;;5.00;1.70;;;27.40;99.90;;;;;;5031425;28;20162;-57
2022/06/14 13:18:52;;;;;;;7.35;1.65;;;27.60;99.90;;;;;;5031403;28;20174;-57
2022/06/14 13:21:18;;;;;;;6.78;1.70;;;;;;;;;;5031418;28;20173;-57
2022/06/14 13:24:08;;;;;;;11.43;1.75;;;27.90;99.90;;;;;;5047347;28;20169;-57
2022/06/14 13:27:05;;;;;;;7.80;1.52;;;28.30;99.90;;;;;;5051186;28;20176;-58
2022/06/14 13:30:01;;;;;;;8.70;2.35;;;29.20;99.90;;;;;;5051557;28;20193;-58
2022/06/14 13:33:07;;;;;;;10.95;2.22;;;29.30;99.90;;;;;;5051203;28;20169;-58
2022/06/14 13:35:57;;;;;;;8.90;2.10;;;29.20;99.90;;;;;;5051030;28;20689;-58
2022/06/14 13:38:40;;;;;;;5.80;2.30;;;29.90;99.90;;;;;;5051047;28;20666;-58
2022/06/14 13:41:25;;;;;;;9.05;2.25;;;31.00;99.90;;;;;;5051132;28;20175;-59
2022/06/14 13:44:15;;;;;;;10.48;3.03;;;30.90;99.90;;;;;;5033255;28;20188;-59
2022/06/14 13:46:53;;;;;;;8.32;2.38;;;30.50;99.90;;;;;;5050860;28;20730;-59
2022/06/14 13:49:29;;;;;;;8.00;2.35;;;30.10;99.90;;;;;;5050549;28;20315;-58
2022/06/14 13:52:24;;;;;;;11.15;2.38;;;30.40;99.90;;;;;;5050899;28;20686;-60
2022/06/14 13:54:52;;;;;;;9.02;2.20;;;30.10;99.90;;;;;;5027097;28;20655;-58
2022/06/14 13:57:43;;;;;;;7.85;2.22;;;29.10;99.90;;;;;;5050833;28;20247;-58
2022/06/14 14:00:50;;;;;;;6.85;2.20;;;27.90;99.90;;;;;;5035650;28;20181;-58
2022/06/14 14:03:18;;;;;;;10.07;2.33;;;27.70;99.90;;;;;;5011506;28;20688;-58
2022/06/14 14:06:01;;;;;;;10.23;2.20;;;27.80;99.90;;;;;;5031160;28;20236;-58